Premium Do Brasil — A8BL4 — position and weather

sailwx.info

Track history (hours):
 
Tides and Currents Weather Stations Pressure Air Temp Water Temp Dewpoint Dewpoint Depression Visibility Wind Speed Wind Dir Waves Ship Positions

Premium Do Brasil

Last reported at 2017-Nov-17 06:00 UTC. Time now 2017-Nov-21 12:16 UTC.
Position N 03°54' W 028°36'.

Type: Other ship. MMSI: 636011792.

Wind at 4 knots

Barometer 1010.7 mb
Air temperature 22.9 ° C
Visibility: greater than 5.4 NM
Dewpoint 20.8 ° C
Water temperature 29.3 ° C

Date/timePositionNaut miles runAvg speedWind from/ knotsBaromVisibWave heightAir tempDewpointWater temp
2017-Nov-17 06:00N 03°54' W 028°36'23919.9 1010.7 5.4 22.920.829.3
2017-Nov-16 18:00N 07°36' W 027°06'27122.6 1010.210.8 25.223.529.1
2017-Nov-16 06:00N 11°48' W 025°24'9916.5 050 / 151010.1 5.4 26.323.229.0
2017-Nov-16 00:00N 13°18' W 024°42'13622.7 120 / 121012.9 5.4 26.425.828.8
2017-Nov-15 18:00N 15°24' W 023°48'37720.9 050 / 91011.2 5.4 27.020.228.4
2017-Nov-15 00:00N 20°54' W 020°36'51021.3 050 / 151015.410.8 21.819.625.3
2017-Nov-14 00:00N 28°18' W 016°00'330.4 050 / 151018.510.8 19.815.423.2
2017-Nov-13 23:54N 28°19' W 016°03'921.6
2017-Nov-13 23:30N 28°26' W 015°56'1121.6
2017-Nov-13 23:00N 28°34' W 015°49'1121.3
2017-Nov-13 22:30N 28°44' W 015°43'1121.7
2017-Nov-13 21:59N 28°55' W 015°40'47221.5
2017-Nov-13 00:00N 36°24' W 012°48'13921.5 140 / 101025.810.8 17.513.521.1
2017-Nov-12 17:32N 38°36' W 011°54'021.7
2017-Nov-12 17:31N 38°37' W 011°54'36821.0
2017-Nov-12 00:00N 44°24' W 009°12'23420.6 300 / 181026.3 5.4 14.710.517.7
2017-Nov-11 12:36N 47°52' W 006°37'421.3
2017-Nov-11 12:26N 47°56' W 006°35'1021.1
2017-Nov-11 11:57N 48°04' W 006°28'1819.2
2017-Nov-11 11:00N 48°20' W 006°15'7418.1
2017-Nov-11 06:57N 49°12' W 004°56'1219.9
2017-Nov-11 06:22N 49°20' W 004°42'820.3
2017-Nov-11 05:57N 49°25' W 004°32'3220.6
2017-Nov-11 04:24N 49°40' W 003°48'920.8
2017-Nov-11 03:59N 49°44' W 003°37'1020.6
2017-Nov-11 03:30N 49°49' W 003°23'1020.1
2017-Nov-11 03:00N 49°53' W 003°09'1020.0
2017-Nov-11 02:30N 49°57' W 002°55'1019.5
2017-Nov-11 02:00N 50°01' W 002°41'2718.5
2017-Nov-11 00:33N 50°10' W 002°02'118.3
2017-Nov-11 00:30N 50°11' W 002°01'918.2
2017-Nov-11 00:01N 50°14' W 001°47'918.7
2017-Nov-10 23:30N 50°17' W 001°33'1019.4
2017-Nov-10 23:01N 50°19' W 001°19'2620.9
2017-Nov-10 21:45N 50°26' W 000°39'821.9
2017-Nov-10 21:22N 50°28' W 000°26'822.0
2017-Nov-10 21:00N 50°30' W 000°14'1122.1
2017-Nov-10 20:30N 50°31' E 000°03'1122.3
2017-Nov-10 20:00N 50°33' E 000°21'1121.9
2017-Nov-10 19:31N 50°37' E 000°37'1122.0
2017-Nov-10 19:00N 50°44' E 000°50'1121.5
2017-Nov-10 18:30N 50°51' E 001°03'1120.9
2017-Nov-10 18:00N 50°58' E 001°16'1020.0
2017-Nov-10 17:30N 51°04' E 001°28'918.7
2017-Nov-10 17:01N 51°10' E 001°39'918.7
2017-Nov-10 16:30N 51°17' E 001°50'1019.3
2017-Nov-10 16:01N 51°25' E 001°59'918.1
2017-Nov-10 15:30N 51°21' E 002°12'918.3
2017-Nov-10 15:00N 51°22' E 002°27'815.9
2017-Nov-10 14:30N 51°22' E 002°39'4 8.6
2017-Nov-10 14:00N 51°22' E 002°46'918.1
2017-Nov-10 13:30N 51°24' E 003°00'815.0
2017-Nov-10 13:00N 51°21' E 003°12'2 3.3
2017-Nov-10 12:30N 51°20' E 003°13'0 0.0
2017-Nov-10 12:00N 51°20' E 003°13'0 0.2
2017-Nov-10 11:28N 51°20' E 003°13'1 1.8
2017-Nov-10 10:58N 51°19' E 003°13'0 0.0
2017-Nov-10 10:25N 51°19' E 003°13'0 0.0
2017-Nov-10 09:58N 51°19' E 003°13'0 0.0
2017-Nov-10 09:28N 51°19' E 003°13'0 0.0
2017-Nov-10 08:58N 51°19' E 003°13'0 0.0
2017-Nov-10 08:28N 51°19' E 003°13'0 0.0
2017-Nov-10 07:58N 51°19' E 003°13'0 0.0
2017-Nov-10 07:28N 51°19' E 003°13'0 0.0
2017-Nov-10 06:58N 51°19' E 003°13'0 0.0
2017-Nov-10 06:28N 51°19' E 003°13'0 0.0
2017-Nov-10 05:58N 51°19' E 003°13'0 0.0
2017-Nov-10 05:28N 51°19' E 003°13'0 0.0
2017-Nov-10 04:58N 51°19' E 003°13'0 0.0
2017-Nov-10 04:28N 51°19' E 003°13'0 0.0
2017-Nov-10 03:58N 51°19' E 003°13'0 0.0
2017-Nov-10 03:25N 51°19' E 003°13'0 0.0
2017-Nov-10 02:58N 51°19' E 003°13'0 0.0
2017-Nov-10 02:28N 51°19' E 003°13'0 0.0
2017-Nov-10 01:58N 51°19' E 003°13'0 0.0
2017-Nov-10 01:28N 51°19' E 003°13'0 0.0
2017-Nov-10 00:58N 51°19' E 003°13'0 0.0
2017-Nov-10 00:28N 51°19' E 003°13'0 0.0
2017-Nov-09 23:58N 51°19' E 003°13'0 0.0
2017-Nov-09 23:28N 51°19' E 003°13'0 0.0
2017-Nov-09 22:58N 51°19' E 003°13'0 0.0
2017-Nov-09 22:28N 51°19' E 003°13'0 0.0
2017-Nov-09 21:58N 51°19' E 003°13'0 0.0
2017-Nov-09 21:28N 51°19' E 003°13'0 0.0
2017-Nov-09 20:58N 51°19' E 003°13'0 0.0
2017-Nov-09 20:28N 51°19' E 003°13'0 0.0
2017-Nov-09 19:58N 51°19' E 003°13'0 0.0
2017-Nov-09 19:28N 51°19' E 003°13'0 0.0
2017-Nov-09 18:58N 51°19' E 003°13'0 0.0
2017-Nov-09 18:28N 51°19' E 003°13'0 0.0
2017-Nov-09 17:58N 51°19' E 003°13'0 0.0
2017-Nov-09 17:28N 51°19' E 003°13'0 0.0
2017-Nov-09 16:58N 51°19' E 003°13'0 0.0
2017-Nov-09 16:28N 51°19' E 003°13'0 0.0
2017-Nov-09 15:58N 51°19' E 003°13'0 0.0
2017-Nov-09 15:28N 51°19' E 003°13'0 0.0
2017-Nov-09 14:58N 51°19' E 003°13'0 0.0
2017-Nov-09 14:25N 51°19' E 003°13'0 0.0
2017-Nov-09 13:58N 51°19' E 003°13'0 0.0
2017-Nov-09 13:28N 51°19' E 003°13'0 0.0
2017-Nov-09 12:58N 51°19' E 003°13'0 0.0
2017-Nov-09 12:28N 51°19' E 003°13'0 0.0
2017-Nov-09 11:58N 51°19' E 003°13'0 0.0
2017-Nov-09 11:28N 51°19' E 003°13'0 0.0
2017-Nov-09 10:58N 51°19' E 003°13'0 0.0
2017-Nov-09 10:28N 51°19' E 003°13'0 0.0
2017-Nov-09 09:58N 51°19' E 003°13'0 0.0
2017-Nov-09 09:28N 51°19' E 003°13'0 0.0
2017-Nov-09 08:58N 51°19' E 003°13'0 0.0
2017-Nov-09 08:28N 51°19' E 003°13'0 0.0
2017-Nov-09 07:58N 51°19' E 003°13'0 0.0
2017-Nov-09 07:28N 51°19' E 003°13'0 0.0
2017-Nov-09 06:58N 51°19' E 003°13'0 0.0
2017-Nov-09 06:28N 51°19' E 003°13'0 0.0
2017-Nov-09 05:58N 51°19' E 003°13'0 0.0
2017-Nov-09 05:28N 51°19' E 003°13'0 0.0
2017-Nov-09 04:58N 51°19' E 003°13'0 0.0
2017-Nov-09 04:28N 51°19' E 003°13'0 0.0
2017-Nov-09 03:58N 51°19' E 003°13'0 0.0
2017-Nov-09 03:28N 51°19' E 003°13'0 0.0
2017-Nov-09 02:58N 51°19' E 003°13'0 0.0
2017-Nov-09 02:28N 51°19' E 003°13'0 0.0
2017-Nov-09 01:58N 51°19' E 003°13'0 0.2
2017-Nov-09 01:28N 51°19' E 003°13'1 2.5
2017-Nov-09 01:00N 51°20' E 003°13'0 0.0
2017-Nov-09 00:30N 51°20' E 003°13'0 0.0
2017-Nov-09 00:00N 51°20' E 003°13'0 0.9
2017-Nov-08 23:30N 51°21' E 003°13'4 8.1
2017-Nov-08 23:00N 51°24' E 003°09'816.4
2017-Nov-08 22:30N 51°25' E 003°23'917.1
2017-Nov-08 22:00N 51°26' E 003°36'510.2
2017-Nov-08 21:30N 51°23' E 003°43'5 9.7
2017-Nov-08 20:58N 51°20' E 003°49'0 0.0
2017-Nov-08 20:28N 51°20' E 003°49'1 1.6
2017-Nov-08 20:01N 51°19' E 003°50'0 0.1
2017-Nov-08 19:30N 51°19' E 003°50'0 0.0
2017-Nov-08 19:01N 51°19' E 003°50'0 0.1
2017-Nov-08 18:30N 51°19' E 003°50'1 1.7
2017-Nov-08 18:00N 51°18' E 003°50'3 5.9
2017-Nov-08 17:31N 51°15' E 003°50'3 6.7
2017-Nov-08 17:01N 51°12' E 003°48'3 5.9
2017-Nov-08 16:31N 51°09' E 003°47'3 5.1
2017-Nov-08 16:01N 51°07' E 003°45'1 2.4
2017-Nov-08 15:30N 51°06' E 003°45'0 0.0
2017-Nov-08 15:00N 51°06' E 003°45'0 0.0
2017-Nov-08 14:30N 51°06' E 003°45'0 0.0
2017-Nov-08 14:00N 51°06' E 003°45'0 0.0
2017-Nov-08 13:30N 51°06' E 003°45'0 0.0
2017-Nov-08 13:00N 51°06' E 003°45'0 0.0
2017-Nov-08 12:30N 51°06' E 003°45'0 0.0
2017-Nov-08 12:00N 51°06' E 003°45'0 0.0
2017-Nov-08 11:30N 51°06' E 003°45'0 0.0
2017-Nov-08 11:00N 51°06' E 003°45'0 0.0
2017-Nov-08 10:30N 51°06' E 003°45'0 0.0
2017-Nov-08 10:00N 51°06' E 003°45'0 0.0
2017-Nov-08 09:30N 51°06' E 003°45'0 0.0
2017-Nov-08 09:00N 51°06' E 003°45'0 0.0
2017-Nov-08 08:30N 51°06' E 003°45'0 0.0
2017-Nov-08 08:00N 51°06' E 003°45'0 0.0
2017-Nov-08 07:30N 51°06' E 003°45'0 0.0
2017-Nov-08 07:00N 51°06' E 003°45'0 0.0
2017-Nov-08 06:30N 51°06' E 003°45'0 0.0
2017-Nov-08 06:00N 51°06' E 003°45'0 0.0
2017-Nov-08 05:30N 51°06' E 003°45'0 0.0
2017-Nov-08 05:00N 51°06' E 003°45'0 0.0
2017-Nov-08 04:30N 51°06' E 003°45'0 0.0
2017-Nov-08 04:00N 51°06' E 003°45'0 0.0
2017-Nov-08 03:24N 51°06' E 003°45'0 0.0
2017-Nov-08 03:00N 51°06' E 003°45'0 0.0
2017-Nov-08 02:30N 51°06' E 003°45'0 0.0
2017-Nov-08 02:00N 51°06' E 003°45'0 0.0
2017-Nov-08 01:30N 51°06' E 003°45'0 0.0
2017-Nov-08 01:00N 51°06' E 003°45'0 0.0
2017-Nov-08 00:30N 51°06' E 003°45'0 0.0
2017-Nov-08 00:00N 51°06' E 003°45'0 0.0
2017-Nov-07 23:30N 51°06' E 003°45'0 0.0
2017-Nov-07 23:00N 51°06' E 003°45'0 0.0
2017-Nov-07 22:30N 51°06' E 003°45'0 0.0
2017-Nov-07 21:57N 51°06' E 003°45'0 0.0
2017-Nov-07 21:30N 51°06' E 003°45'0 0.0
2017-Nov-07 21:00N 51°06' E 003°45'0 0.0
2017-Nov-07 20:30N 51°06' E 003°45'0 0.0
2017-Nov-07 20:00N 51°06' E 003°45'0 0.0
2017-Nov-07 19:30N 51°06' E 003°45'0 0.0
2017-Nov-07 19:00N 51°06' E 003°45'0 0.0
2017-Nov-07 18:30N 51°06' E 003°45'0 0.2
2017-Nov-07 18:00N 51°06' E 003°45'0 0.0
2017-Nov-07 17:30N 51°06' E 003°45'0 0.0
2017-Nov-07 17:00N 51°06' E 003°45'0 0.0
2017-Nov-07 16:30N 51°06' E 003°45'0 0.0
2017-Nov-07 16:00N 51°06' E 003°45'0 0.0
2017-Nov-07 15:30N 51°06' E 003°45'0 0.0
2017-Nov-07 15:00N 51°06' E 003°45'0 0.0
2017-Nov-07 14:30N 51°06' E 003°45'0 0.0
2017-Nov-07 14:00N 51°06' E 003°45'0 0.0
2017-Nov-07 13:30N 51°06' E 003°45'0 0.0
2017-Nov-07 13:00N 51°06' E 003°45'0 0.0
2017-Nov-07 12:30N 51°06' E 003°45'0 0.0
2017-Nov-07 12:00N 51°06' E 003°45'0 0.0
2017-Nov-07 11:24N 51°06' E 003°45'0 0.0
2017-Nov-07 11:00N 51°06' E 003°45'0 0.0
2017-Nov-07 10:30N 51°06' E 003°45'0 0.0
2017-Nov-07 10:00N 51°06' E 003°45'0 0.0
2017-Nov-07 09:30N 51°06' E 003°45'0 0.0
2017-Nov-07 09:00N 51°06' E 003°45'0 0.0
2017-Nov-07 08:30N 51°06' E 003°45'0 0.0
2017-Nov-07 08:00N 51°06' E 003°45'0 0.0
2017-Nov-07 07:30N 51°06' E 003°45'0 0.0
2017-Nov-07 07:00N 51°06' E 003°45'0 0.0
2017-Nov-07 06:30N 51°06' E 003°45'0 0.0
2017-Nov-07 06:00N 51°06' E 003°45'  
Track history (hours):
 
Tides and Currents Weather Stations Pressure Air Temp Water Temp Dewpoint Dewpoint Depression Visibility Wind Speed Wind Dir Waves Ship Positions

Premium Do Brasil

Last reported at 2017-Nov-17 06:00 UTC. Time now 2017-Nov-21 12:16 UTC.
Position N 03°54' W 028°36'.

Type: Other ship. MMSI: 636011792.

Wind at 4 knots

Barometer 1010.7 mb
Air temperature 22.9 ° C
Visibility: greater than 5.4 NM
Dewpoint 20.8 ° C
Water temperature 29.3 ° C

Date/timePositionNaut miles runAvg speedWind from/ knotsBaromVisibWave heightAir tempDewpointWater temp
2017-Nov-17 06:00N 03°54' W 028°36'23919.9 1010.7 5.4 22.920.829.3
2017-Nov-16 18:00N 07°36' W 027°06'27122.6 1010.210.8 25.223.529.1
2017-Nov-16 06:00N 11°48' W 025°24'9916.5 050 / 151010.1 5.4 26.323.229.0
2017-Nov-16 00:00N 13°18' W 024°42'13622.7 120 / 121012.9 5.4 26.425.828.8
2017-Nov-15 18:00N 15°24' W 023°48'37720.9 050 / 91011.2 5.4 27.020.228.4
2017-Nov-15 00:00N 20°54' W 020°36'51021.3 050 / 151015.410.8 21.819.625.3
2017-Nov-14 00:00N 28°18' W 016°00'330.4 050 / 151018.510.8 19.815.423.2
2017-Nov-13 23:54N 28°19' W 016°03'921.6
2017-Nov-13 23:30N 28°26' W 015°56'1121.6
2017-Nov-13 23:00N 28°34' W 015°49'1121.3
2017-Nov-13 22:30N 28°44' W 015°43'1121.7
2017-Nov-13 21:59N 28°55' W 015°40'47221.5
2017-Nov-13 00:00N 36°24' W 012°48'13921.5 140 / 101025.810.8 17.513.521.1
2017-Nov-12 17:32N 38°36' W 011°54'021.7
2017-Nov-12 17:31N 38°37' W 011°54'36821.0
2017-Nov-12 00:00N 44°24' W 009°12'23420.6 300 / 181026.3 5.4 14.710.517.7
2017-Nov-11 12:36N 47°52' W 006°37'421.3
2017-Nov-11 12:26N 47°56' W 006°35'1021.1
2017-Nov-11 11:57N 48°04' W 006°28'1819.2
2017-Nov-11 11:00N 48°20' W 006°15'7418.1
2017-Nov-11 06:57N 49°12' W 004°56'1219.9
2017-Nov-11 06:22N 49°20' W 004°42'820.3
2017-Nov-11 05:57N 49°25' W 004°32'3220.6
2017-Nov-11 04:24N 49°40' W 003°48'920.8
2017-Nov-11 03:59N 49°44' W 003°37'1020.6
2017-Nov-11 03:30N 49°49' W 003°23'1020.1
2017-Nov-11 03:00N 49°53' W 003°09'1020.0
2017-Nov-11 02:30N 49°57' W 002°55'1019.5
2017-Nov-11 02:00N 50°01' W 002°41'2718.5
2017-Nov-11 00:33N 50°10' W 002°02'118.3
2017-Nov-11 00:30N 50°11' W 002°01'918.2
2017-Nov-11 00:01N 50°14' W 001°47'918.7
2017-Nov-10 23:30N 50°17' W 001°33'1019.4
2017-Nov-10 23:01N 50°19' W 001°19'2620.9
2017-Nov-10 21:45N 50°26' W 000°39'821.9
2017-Nov-10 21:22N 50°28' W 000°26'822.0
2017-Nov-10 21:00N 50°30' W 000°14'1122.1
2017-Nov-10 20:30N 50°31' E 000°03'1122.3
2017-Nov-10 20:00N 50°33' E 000°21'1121.9
2017-Nov-10 19:31N 50°37' E 000°37'1122.0
2017-Nov-10 19:00N 50°44' E 000°50'1121.5
2017-Nov-10 18:30N 50°51' E 001°03'1120.9
2017-Nov-10 18:00N 50°58' E 001°16'1020.0
2017-Nov-10 17:30N 51°04' E 001°28'918.7
2017-Nov-10 17:01N 51°10' E 001°39'918.7
2017-Nov-10 16:30N 51°17' E 001°50'1019.3
2017-Nov-10 16:01N 51°25' E 001°59'918.1
2017-Nov-10 15:30N 51°21' E 002°12'918.3
2017-Nov-10 15:00N 51°22' E 002°27'815.9
2017-Nov-10 14:30N 51°22' E 002°39'4 8.6
2017-Nov-10 14:00N 51°22' E 002°46'918.1
2017-Nov-10 13:30N 51°24' E 003°00'815.0
2017-Nov-10 13:00N 51°21' E 003°12'2 3.3
2017-Nov-10 12:30N 51°20' E 003°13'0 0.0
2017-Nov-10 12:00N 51°20' E 003°13'0 0.2
2017-Nov-10 11:28N 51°20' E 003°13'1 1.8
2017-Nov-10 10:58N 51°19' E 003°13'0 0.0
2017-Nov-10 10:25N 51°19' E 003°13'0 0.0
2017-Nov-10 09:58N 51°19' E 003°13'0 0.0
2017-Nov-10 09:28N 51°19' E 003°13'0 0.0
2017-Nov-10 08:58N 51°19' E 003°13'0 0.0
2017-Nov-10 08:28N 51°19' E 003°13'0 0.0
2017-Nov-10 07:58N 51°19' E 003°13'0 0.0
2017-Nov-10 07:28N 51°19' E 003°13'0 0.0
2017-Nov-10 06:58N 51°19' E 003°13'0 0.0
2017-Nov-10 06:28N 51°19' E 003°13'0 0.0
2017-Nov-10 05:58N 51°19' E 003°13'0 0.0
2017-Nov-10 05:28N 51°19' E 003°13'0 0.0
2017-Nov-10 04:58N 51°19' E 003°13'0 0.0
2017-Nov-10 04:28N 51°19' E 003°13'0 0.0
2017-Nov-10 03:58N 51°19' E 003°13'0 0.0
2017-Nov-10 03:25N 51°19' E 003°13'0 0.0
2017-Nov-10 02:58N 51°19' E 003°13'0 0.0
2017-Nov-10 02:28N 51°19' E 003°13'0 0.0
2017-Nov-10 01:58N 51°19' E 003°13'0 0.0
2017-Nov-10 01:28N 51°19' E 003°13'0 0.0
2017-Nov-10 00:58N 51°19' E 003°13'0 0.0
2017-Nov-10 00:28N 51°19' E 003°13'0 0.0
2017-Nov-09 23:58N 51°19' E 003°13'0 0.0
2017-Nov-09 23:28N 51°19' E 003°13'0 0.0
2017-Nov-09 22:58N 51°19' E 003°13'0 0.0
2017-Nov-09 22:28N 51°19' E 003°13'0 0.0
2017-Nov-09 21:58N 51°19' E 003°13'0 0.0
2017-Nov-09 21:28N 51°19' E 003°13'0 0.0
2017-Nov-09 20:58N 51°19' E 003°13'0 0.0
2017-Nov-09 20:28N 51°19' E 003°13'0 0.0
2017-Nov-09 19:58N 51°19' E 003°13'0 0.0
2017-Nov-09 19:28N 51°19' E 003°13'0 0.0
2017-Nov-09 18:58N 51°19' E 003°13'0 0.0
2017-Nov-09 18:28N 51°19' E 003°13'0 0.0
2017-Nov-09 17:58N 51°19' E 003°13'0 0.0
2017-Nov-09 17:28N 51°19' E 003°13'0 0.0
2017-Nov-09 16:58N 51°19' E 003°13'0 0.0
2017-Nov-09 16:28N 51°19' E 003°13'0 0.0
2017-Nov-09 15:58N 51°19' E 003°13'0 0.0
2017-Nov-09 15:28N 51°19' E 003°13'0 0.0
2017-Nov-09 14:58N 51°19' E 003°13'0 0.0
2017-Nov-09 14:25N 51°19' E 003°13'0 0.0
2017-Nov-09 13:58N 51°19' E 003°13'0 0.0
2017-Nov-09 13:28N 51°19' E 003°13'0 0.0
2017-Nov-09 12:58N 51°19' E 003°13'0 0.0
2017-Nov-09 12:28N 51°19' E 003°13'0 0.0
2017-Nov-09 11:58N 51°19' E 003°13'0 0.0
2017-Nov-09 11:28N 51°19' E 003°13'0 0.0
2017-Nov-09 10:58N 51°19' E 003°13'0 0.0
2017-Nov-09 10:28N 51°19' E 003°13'0 0.0
2017-Nov-09 09:58N 51°19' E 003°13'0 0.0
2017-Nov-09 09:28N 51°19' E 003°13'0 0.0
2017-Nov-09 08:58N 51°19' E 003°13'0 0.0
2017-Nov-09 08:28N 51°19' E 003°13'0 0.0
2017-Nov-09 07:58N 51°19' E 003°13'0 0.0
2017-Nov-09 07:28N 51°19' E 003°13'0 0.0
2017-Nov-09 06:58N 51°19' E 003°13'0 0.0
2017-Nov-09 06:28N 51°19' E 003°13'0 0.0
2017-Nov-09 05:58N 51°19' E 003°13'0 0.0
2017-Nov-09 05:28N 51°19' E 003°13'0 0.0
2017-Nov-09 04:58N 51°19' E 003°13'0 0.0
2017-Nov-09 04:28N 51°19' E 003°13'0 0.0
2017-Nov-09 03:58N 51°19' E 003°13'0 0.0
2017-Nov-09 03:28N 51°19' E 003°13'0 0.0
2017-Nov-09 02:58N 51°19' E 003°13'0 0.0
2017-Nov-09 02:28N 51°19' E 003°13'0 0.0
2017-Nov-09 01:58N 51°19' E 003°13'0 0.2
2017-Nov-09 01:28N 51°19' E 003°13'1 2.5
2017-Nov-09 01:00N 51°20' E 003°13'0 0.0
2017-Nov-09 00:30N 51°20' E 003°13'0 0.0
2017-Nov-09 00:00N 51°20' E 003°13'0 0.9
2017-Nov-08 23:30N 51°21' E 003°13'4 8.1
2017-Nov-08 23:00N 51°24' E 003°09'816.4
2017-Nov-08 22:30N 51°25' E 003°23'917.1
2017-Nov-08 22:00N 51°26' E 003°36'510.2
2017-Nov-08 21:30N 51°23' E 003°43'5 9.7
2017-Nov-08 20:58N 51°20' E 003°49'0 0.0
2017-Nov-08 20:28N 51°20' E 003°49'1 1.6
2017-Nov-08 20:01N 51°19' E 003°50'0 0.1
2017-Nov-08 19:30N 51°19' E 003°50'0 0.0
2017-Nov-08 19:01N 51°19' E 003°50'0 0.1
2017-Nov-08 18:30N 51°19' E 003°50'1 1.7
2017-Nov-08 18:00N 51°18' E 003°50'3 5.9
2017-Nov-08 17:31N 51°15' E 003°50'3 6.7
2017-Nov-08 17:01N 51°12' E 003°48'3 5.9
2017-Nov-08 16:31N 51°09' E 003°47'3 5.1
2017-Nov-08 16:01N 51°07' E 003°45'1 2.4
2017-Nov-08 15:30N 51°06' E 003°45'0 0.0
2017-Nov-08 15:00N 51°06' E 003°45'0 0.0
2017-Nov-08 14:30N 51°06' E 003°45'0 0.0
2017-Nov-08 14:00N 51°06' E 003°45'0 0.0
2017-Nov-08 13:30N 51°06' E 003°45'0 0.0
2017-Nov-08 13:00N 51°06' E 003°45'0 0.0
2017-Nov-08 12:30N 51°06' E 003°45'0 0.0
2017-Nov-08 12:00N 51°06' E 003°45'0 0.0
2017-Nov-08 11:30N 51°06' E 003°45'0 0.0
2017-Nov-08 11:00N 51°06' E 003°45'0 0.0
2017-Nov-08 10:30N 51°06' E 003°45'0 0.0
2017-Nov-08 10:00N 51°06' E 003°45'0 0.0
2017-Nov-08 09:30N 51°06' E 003°45'0 0.0
2017-Nov-08 09:00N 51°06' E 003°45'0 0.0
2017-Nov-08 08:30N 51°06' E 003°45'0 0.0
2017-Nov-08 08:00N 51°06' E 003°45'0 0.0
2017-Nov-08 07:30N 51°06' E 003°45'0 0.0
2017-Nov-08 07:00N 51°06' E 003°45'0 0.0
2017-Nov-08 06:30N 51°06' E 003°45'0 0.0
2017-Nov-08 06:00N 51°06' E 003°45'0 0.0
2017-Nov-08 05:30N 51°06' E 003°45'0 0.0
2017-Nov-08 05:00N 51°06' E 003°45'0 0.0
2017-Nov-08 04:30N 51°06' E 003°45'0 0.0
2017-Nov-08 04:00N 51°06' E 003°45'0 0.0
2017-Nov-08 03:24N 51°06' E 003°45'0 0.0
2017-Nov-08 03:00N 51°06' E 003°45'0 0.0
2017-Nov-08 02:30N 51°06' E 003°45'0 0.0
2017-Nov-08 02:00N 51°06' E 003°45'0 0.0
2017-Nov-08 01:30N 51°06' E 003°45'0 0.0
2017-Nov-08 01:00N 51°06' E 003°45'0 0.0
2017-Nov-08 00:30N 51°06' E 003°45'0 0.0
2017-Nov-08 00:00N 51°06' E 003°45'0 0.0
2017-Nov-07 23:30N 51°06' E 003°45'0 0.0
2017-Nov-07 23:00N 51°06' E 003°45'0 0.0
2017-Nov-07 22:30N 51°06' E 003°45'0 0.0
2017-Nov-07 21:57N 51°06' E 003°45'0 0.0
2017-Nov-07 21:30N 51°06' E 003°45'0 0.0
2017-Nov-07 21:00N 51°06' E 003°45'0 0.0
2017-Nov-07 20:30N 51°06' E 003°45'0 0.0
2017-Nov-07 20:00N 51°06' E 003°45'0 0.0
2017-Nov-07 19:30N 51°06' E 003°45'0 0.0
2017-Nov-07 19:00N 51°06' E 003°45'0 0.0
2017-Nov-07 18:30N 51°06' E 003°45'0 0.2
2017-Nov-07 18:00N 51°06' E 003°45'0 0.0
2017-Nov-07 17:30N 51°06' E 003°45'0 0.0
2017-Nov-07 17:00N 51°06' E 003°45'0 0.0
2017-Nov-07 16:30N 51°06' E 003°45'0 0.0
2017-Nov-07 16:00N 51°06' E 003°45'0 0.0
2017-Nov-07 15:30N 51°06' E 003°45'0 0.0
2017-Nov-07 15:00N 51°06' E 003°45'0 0.0
2017-Nov-07 14:30N 51°06' E 003°45'0 0.0
2017-Nov-07 14:00N 51°06' E 003°45'0 0.0
2017-Nov-07 13:30N 51°06' E 003°45'0 0.0
2017-Nov-07 13:00N 51°06' E 003°45'0 0.0
2017-Nov-07 12:30N 51°06' E 003°45'0 0.0
2017-Nov-07 12:00N 51°06' E 003°45'0 0.0
2017-Nov-07 11:24N 51°06' E 003°45'0 0.0
2017-Nov-07 11:00N 51°06' E 003°45'0 0.0
2017-Nov-07 10:30N 51°06' E 003°45'0 0.0
2017-Nov-07 10:00N 51°06' E 003°45'0 0.0
2017-Nov-07 09:30N 51°06' E 003°45'0 0.0
2017-Nov-07 09:00N 51°06' E 003°45'0 0.0
2017-Nov-07 08:30N 51°06' E 003°45'0 0.0
2017-Nov-07 08:00N 51°06' E 003°45'0 0.0
2017-Nov-07 07:30N 51°06' E 003°45'0 0.0
2017-Nov-07 07:00N 51°06' E 003°45'0 0.0
2017-Nov-07 06:30N 51°06' E 003°45'0 0.0
2017-Nov-07 06:00N 51°06' E 003°45'  

Dump ship's entire track history